Calhoun, Tennessee
Current Conditions -  °F | °C
As of 12:35 PM on Friday 24 Oct 2014 (Local Time) from KRZR Reporting Station
Clear Clear  
Wind Chill: 61°   Ceiling: Unl
Heat Index: 61°   Visibility: 10mi
Dew Point: 45°   Wind: 3mph
Humidity: 55%   Direction: 10°N
Pressure: 30.1"   Gusts: NA
Location:  35.3°N, 84.75°W
Report Text: KRZR 241635Z AUTO 01003KT 10SM CLR 16/07 A3010 RMK
Loading
Personal Weather Stations






























Interactive Weather Map
Tropical Storm Tracking
New forecast layout! Learn more

10-Day Weather Forecast

Advertisements
Track Severe Weather on mobile